SBGR/GRU METAR and TAF weather

Enter ICAO airport designator
Station Type Date Time Source
SBGR METAR 2020/09/22 19:00 UTC NOAA

SBGR 221900Z 13007KT 8000 -RA OVC013 16/13 Q1024


Station Type Date Time Source
SBGR Decoded METAR 2020/09/22 19:00 UTC NOAA

Guarulhos Civ / Mil , Brazil (SBGR) 23-26S 046-28W
Sep 22, 2020 - 03:00 PM EDT / 2020.09.22 1900 UTC
Wind: from the SE (130 degrees) at 8 MPH (7 KT):0
Visibility: 4 mile(s):0
Sky conditions: overcast
Weather: light rain
Temperature: 60 F (16 C)
Dew Point: 55 F (13 C)
Relative Humidity: 82%
Pressure (altimeter): 30.24 in. Hg (1024 hPa)
ob: SBGR 221900Z 13007KT 8000 -RA OVC013 16/13 Q1024
cycle: 19

Station Type Date Time Source
SBGR TAF 2020/09/22 18:27 UTC NOAA

TAF SBGR 221600Z 2218/2324 16008KT 9999 BKN013 TN13/2308Z TX20/2316Z
TEMPO 2218/2220 18005KT 6000 DZ BKN009
BECMG 2220/2222 OVC011
BECMG 2300/2302 13008KT PROB30 2303/2306 BKN007 OVC015
BECMG 2306/2308 10005KT BKN013
BECMG 2310/2312 FEW013 BKN020
BECMG 2314/2316 15005KT
BECMG 2319/2321 12005KT BKN013
BECMG 2322/2324 BKN009
RMK PHH

Example: see airport list